San Bernardino, California
Current Conditions -  °F | °C
As of 7:45 AM on Sunday 23 Nov 2014 (Local Time) from KSBD Reporting Station
Broken Clouds Broken Clouds  
Wind Chill: 64°   Ceiling: 20000
Heat Index: 64°   Visibility: 10mi
Dew Point: 30°   Wind: 0mph
Humidity: 28%   Direction: NA
Pressure: 30.13"   Gusts: NA
Location:  34.11°N, 117.29°W
Report Text: KSBD 231545Z 00000KT 10SM BKN200 18/M01 A3013
Loading
Personal Weather Stations






























Interactive Weather Map New forecast layout! Learn more

10-Day Weather Forecast

Advertisements
Track Severe Weather on mobile